createdAt,value
2023-04-22T00:00:40.884Z,148.29
2023-04-22T00:01:40.930Z,149.23
2023-04-22T00:02:41.175Z,148.93
2023-04-22T00:03:41.322Z,148.21
2023-04-22T00:04:41.328Z,146.91
2023-04-22T00:05:41.190Z,148.17
2023-04-22T00:06:41.195Z,148.02
2023-04-22T00:07:41.234Z,148.20
2023-04-22T00:08:41.290Z,147.34
2023-04-22T00:09:41.393Z,149.25
2023-04-22T00:10:41.437Z,146.89
2023-04-22T00:11:41.465Z,149.17
2023-04-22T00:12:41.538Z,148.50
2023-04-22T00:13:41.566Z,148.15
2023-04-22T00:14:41.635Z,147.17
2023-04-22T00:15:41.755Z,146.88
2023-04-22T00:16:41.808Z,147.11
2023-04-22T00:17:41.870Z,147.39
2023-04-22T00:18:41.877Z,148.27
2023-04-22T00:19:41.929Z,147.57
2023-04-22T00:20:41.996Z,147.50
2023-04-22T00:21:42.078Z,147.09
2023-04-22T00:22:42.111Z,146.84
2023-04-22T00:23:42.198Z,147.84
2023-04-22T00:24:42.233Z,147.39
2023-04-22T00:25:42.298Z,146.19
2023-04-22T00:26:42.313Z,146.52
2023-04-22T00:27:42.383Z,146.99
2023-04-22T00:28:42.450Z,147.85
2023-04-22T00:29:42.492Z,147.02
2023-04-22T00:30:43.372Z,146.34
2023-04-22T00:31:42.644Z,146.08
2023-04-22T00:32:42.790Z,147.56
2023-04-22T00:33:42.741Z,146.34
2023-04-22T00:34:42.804Z,148.69
2023-04-22T00:35:43.374Z,147.72
2023-04-22T00:36:42.969Z,147.74
2023-04-22T00:37:42.983Z,146.01
2023-04-22T00:38:43.037Z,145.90
2023-04-22T00:39:43.328Z,146.94
2023-04-22T00:40:43.180Z,146.46
2023-04-22T00:41:43.183Z,146.48
2023-04-22T00:42:43.273Z,147.46
2023-04-22T00:43:43.339Z,145.94
2023-04-22T00:44:43.412Z,147.19
2023-04-22T00:45:43.426Z,146.85
2023-04-22T00:46:43.591Z,144.44
2023-04-22T00:47:43.609Z,146.43
2023-04-22T00:48:43.625Z,144.57
2023-04-22T00:49:43.638Z,144.19
2023-04-22T00:50:43.722Z,144.54
2023-04-22T00:51:43.767Z,148.41
2023-04-22T00:52:43.836Z,146.05
2023-04-22T00:53:43.910Z,145.31
2023-04-22T00:54:43.952Z,145.79
2023-04-22T00:55:44.050Z,147.32
2023-04-22T00:56:44.089Z,146.49
2023-04-22T00:57:44.155Z,145.95
2023-04-22T00:58:44.214Z,144.52
2023-04-22T00:59:44.272Z,145.32
2023-04-22T01:00:44.440Z,147.10
2023-04-22T01:01:44.390Z,143.51
2023-04-22T01:02:44.560Z,143.90
2023-04-22T01:03:44.667Z,143.14
2023-04-22T01:04:44.579Z,144.11
2023-04-22T01:05:44.668Z,144.84
2023-04-22T01:06:44.690Z,144.04
2023-04-22T01:07:44.750Z,143.68
2023-04-22T01:08:44.806Z,143.06
2023-04-22T01:09:44.885Z,145.63
2023-04-22T01:10:44.976Z,143.50
2023-04-22T01:11:45.009Z,144.05
2023-04-22T01:12:45.104Z,144.47
2023-04-22T01:13:45.170Z,142.35
2023-04-22T01:14:45.209Z,142.57
2023-04-22T01:15:45.274Z,143.15
2023-04-22T01:16:45.480Z,145.02
2023-04-22T01:17:45.421Z,143.97
2023-04-22T01:18:45.413Z,145.57
2023-04-22T01:19:45.477Z,141.55
2023-04-22T01:20:45.563Z,144.08
2023-04-22T01:21:45.593Z,143.77
2023-04-22T01:22:45.673Z,144.27
2023-04-22T01:23:45.708Z,144.81
2023-04-22T01:24:45.806Z,143.52
2023-04-22T01:25:45.846Z,142.91
2023-04-22T01:26:45.876Z,142.65
2023-04-22T01:27:45.941Z,143.68
2023-04-22T01:28:46.038Z,146.61
2023-04-22T01:29:46.090Z,144.61
2023-04-22T01:30:46.148Z,141.12
2023-04-22T01:31:46.236Z,144.19
2023-04-22T01:32:46.357Z,141.91
2023-04-22T01:33:46.318Z,141.94
2023-04-22T01:34:46.368Z,143.17
2023-04-22T01:35:46.917Z,142.34
2023-04-22T01:36:46.481Z,141.70
2023-04-22T01:37:46.568Z,139.88
2023-04-22T01:38:46.585Z,140.34
2023-04-22T01:39:46.674Z,141.52
2023-04-22T01:40:46.729Z,141.30
2023-04-22T01:41:46.774Z,142.96
2023-04-22T01:42:46.846Z,140.79
2023-04-22T01:43:46.917Z,142.92
2023-04-22T01:44:46.966Z,140.61
2023-04-22T01:45:47.088Z,137.60
2023-04-22T01:46:47.121Z,141.40
2023-04-22T01:47:47.213Z,140.58
2023-04-22T01:48:47.303Z,142.40
2023-04-22T01:49:47.335Z,139.90
2023-04-22T01:50:47.375Z,141.65
2023-04-22T01:51:47.413Z,140.41
2023-04-22T01:52:47.488Z,142.17
2023-04-22T01:53:47.564Z,140.60
2023-04-22T01:54:47.595Z,140.24
2023-04-22T01:55:47.710Z,142.92
2023-04-22T01:56:47.835Z,139.56
2023-04-22T01:57:47.799Z,140.17
2023-04-22T01:58:47.842Z,142.73
2023-04-22T01:59:47.926Z,140.70
2023-04-22T02:00:47.978Z,141.22
2023-04-22T02:01:48.112Z,138.52
2023-04-22T02:02:48.233Z,140.51
2023-04-22T02:03:48.214Z,139.09
2023-04-22T02:04:48.206Z,139.01
2023-04-22T02:05:48.250Z,141.92
2023-04-22T02:06:48.335Z,140.89
2023-04-22T02:07:48.392Z,139.68
2023-04-22T02:08:48.487Z,140.06
2023-04-22T02:09:50.808Z,141.17
2023-04-22T02:10:48.545Z,140.69
2023-04-22T02:11:48.605Z,139.77
2023-04-22T02:12:48.716Z,139.23
2023-04-22T02:13:48.725Z,139.22
2023-04-22T02:14:48.789Z,139.90
2023-04-22T02:15:48.936Z,138.31
2023-04-22T02:16:49.021Z,140.12
2023-04-22T02:17:49.015Z,137.77
2023-04-22T02:18:49.028Z,138.36
2023-04-22T02:19:49.160Z,139.13
2023-04-22T02:20:49.229Z,139.87
2023-04-22T02:21:49.221Z,139.71
2023-04-22T02:22:49.242Z,142.05
2023-04-22T02:23:49.284Z,139.78
2023-04-22T02:24:49.341Z,139.71
2023-04-22T02:25:49.518Z,139.23
2023-04-22T02:26:49.462Z,136.68
2023-04-22T02:27:49.476Z,137.36
2023-04-22T02:28:49.563Z,138.39
2023-04-22T02:29:49.593Z,138.96
2023-04-22T02:30:51.430Z,136.83
2023-04-22T02:31:49.700Z,136.73
2023-04-22T02:32:49.812Z,138.48
2023-04-22T02:33:49.788Z,137.67
2023-04-22T02:34:49.825Z,136.82
2023-04-22T02:35:49.939Z,138.13
2023-04-22T02:36:49.910Z,136.07
2023-04-22T02:37:49.973Z,135.77
2023-04-22T02:38:50.036Z,136.31
2023-04-22T02:39:50.069Z,138.40
2023-04-22T02:40:50.959Z,137.78
2023-04-22T02:41:50.127Z,136.67
2023-04-22T02:42:50.212Z,139.86
2023-04-22T02:43:50.221Z,138.54
2023-04-22T02:44:50.264Z,137.88
2023-04-22T02:45:50.334Z,137.76
2023-04-22T02:46:50.404Z,138.57
2023-04-22T02:47:50.462Z,137.59
2023-04-22T02:48:50.454Z,137.57
2023-04-22T02:49:50.516Z,137.56
2023-04-22T02:50:50.550Z,137.83
2023-04-22T02:51:50.601Z,136.57
2023-04-22T02:52:50.620Z,136.58
2023-04-22T02:53:50.633Z,137.90
2023-04-22T02:54:50.648Z,136.66
2023-04-22T02:55:50.713Z,139.34
2023-04-22T02:56:50.731Z,137.35
2023-04-22T02:57:50.762Z,139.59
2023-04-22T02:58:50.776Z,136.00
2023-04-22T02:59:50.800Z,137.61
2023-04-22T03:00:50.855Z,136.88
2023-04-22T03:01:50.912Z,136.99
2023-04-22T03:02:51.006Z,135.25
2023-04-22T03:03:51.142Z,136.77
2023-04-22T03:04:50.988Z,136.22
2023-04-22T03:05:51.077Z,138.98
2023-04-22T03:06:51.085Z,139.95
2023-04-22T03:07:51.153Z,136.47
2023-04-22T03:08:51.182Z,136.64
2023-04-22T03:09:51.235Z,136.69
2023-04-22T03:10:51.322Z,138.09
2023-04-22T03:11:51.377Z,136.26
2023-04-22T03:12:51.396Z,137.89
2023-04-22T03:13:51.469Z,136.11
2023-04-22T03:14:51.479Z,136.39
2023-04-22T03:15:54.933Z,135.64
2023-04-22T03:16:51.590Z,138.71
2023-04-22T03:17:51.653Z,137.18
2023-04-22T03:18:51.508Z,137.01
2023-04-22T03:19:51.506Z,139.15
2023-04-22T03:20:51.486Z,137.56
2023-04-22T03:21:51.513Z,135.74
2023-04-22T03:22:51.489Z,136.94
2023-04-22T03:23:51.495Z,137.22
2023-04-22T03:24:51.463Z,135.94
2023-04-22T03:25:51.468Z,136.30
2023-04-22T03:26:51.515Z,134.89
2023-04-22T03:27:51.458Z,137.42
2023-04-22T03:28:51.442Z,136.22
2023-04-22T03:29:51.455Z,135.35
2023-04-22T03:30:51.961Z,133.22
2023-04-22T03:31:51.502Z,135.82
2023-04-22T03:32:51.502Z,134.21
2023-04-22T03:33:51.427Z,137.99
2023-04-22T03:34:51.442Z,135.99
2023-04-22T03:35:51.418Z,135.40
2023-04-22T03:36:51.434Z,134.37
2023-04-22T03:37:51.402Z,136.74
2023-04-22T03:38:51.432Z,133.25
2023-04-22T03:39:51.383Z,133.15
2023-04-22T03:40:51.717Z,137.09
2023-04-22T03:41:51.944Z,134.40
2023-04-22T03:42:51.392Z,134.44
2023-04-22T03:43:51.356Z,135.30
2023-04-22T03:44:51.376Z,132.36
2023-04-22T03:45:51.393Z,133.75
2023-04-22T03:46:51.361Z,133.02
2023-04-22T03:47:51.374Z,131.76
2023-04-22T03:48:51.341Z,136.84
2023-04-22T03:49:51.336Z,132.44
2023-04-22T03:50:51.351Z,134.38
2023-04-22T03:51:51.313Z,135.33
2023-04-22T03:52:51.324Z,132.78
2023-04-22T03:53:51.299Z,133.21
2023-04-22T03:54:51.297Z,130.85
2023-04-22T03:55:51.331Z,134.93
2023-04-22T03:56:51.299Z,133.04
2023-04-22T03:57:51.285Z,134.01
2023-04-22T03:58:51.278Z,131.01
2023-04-22T03:59:51.301Z,129.12
2023-04-22T04:00:51.268Z,132.26
2023-04-22T04:01:51.274Z,132.90
2023-04-22T04:02:51.475Z,130.16
2023-04-22T04:03:51.520Z,132.78
2023-04-22T04:04:51.820Z,131.54
2023-04-22T04:05:51.611Z,129.91
2023-04-22T04:06:51.487Z,132.09
2023-04-22T04:07:51.452Z,133.11
2023-04-22T04:08:51.469Z,130.81
2023-04-22T04:09:51.485Z,132.97
2023-04-22T04:10:51.487Z,133.62
2023-04-22T04:11:51.521Z,131.59
2023-04-22T04:12:51.595Z,131.93
2023-04-22T04:13:51.598Z,130.24
2023-04-22T04:14:51.628Z,134.01
2023-04-22T04:15:51.677Z,130.40
2023-04-22T04:16:51.664Z,132.68
2023-04-22T04:17:51.738Z,129.73
2023-04-22T04:18:51.635Z,130.73
2023-04-22T04:19:51.674Z,130.26
2023-04-22T04:20:51.658Z,130.60
2023-04-22T04:21:51.657Z,132.88
2023-04-22T04:22:51.646Z,131.29
2023-04-22T04:23:51.649Z,131.48
2023-04-22T04:24:51.649Z,133.11
2023-04-22T04:25:51.657Z,131.59
2023-04-22T04:26:51.641Z,133.17
2023-04-22T04:27:51.635Z,134.02
2023-04-22T04:28:51.636Z,132.71
2023-04-22T04:29:51.638Z,130.09
2023-04-22T04:30:51.706Z,127.83
2023-04-22T04:31:51.854Z,128.37
2023-04-22T04:32:51.690Z,131.84
2023-04-22T04:33:51.676Z,128.56
2023-04-22T04:34:51.629Z,128.52
2023-04-22T04:35:51.632Z,130.81
2023-04-22T04:36:51.621Z,131.53
2023-04-22T04:37:51.663Z,127.28
2023-04-22T04:38:52.486Z,128.77
2023-04-22T04:39:51.624Z,129.44
2023-04-22T04:40:51.626Z,130.12
2023-04-22T04:41:51.615Z,131.44
2023-04-22T04:42:51.597Z,129.78
2023-04-22T04:43:51.584Z,128.69
2023-04-22T04:44:51.576Z,129.34
2023-04-22T04:45:51.579Z,130.39
2023-04-22T04:46:51.626Z,131.69
2023-04-22T04:47:51.591Z,128.28
2023-04-22T04:48:51.543Z,129.01
2023-04-22T04:49:51.563Z,127.09
2023-04-22T04:50:51.581Z,130.27
2023-04-22T04:51:51.554Z,130.06
2023-04-22T04:52:52.754Z,129.44
2023-04-22T04:53:51.541Z,133.47
2023-04-22T04:54:51.524Z,130.62
2023-04-22T04:55:51.510Z,127.58
2023-04-22T04:56:51.489Z,128.87
2023-04-22T04:57:51.495Z,128.85
2023-04-22T04:58:51.487Z,128.64
2023-04-22T04:59:51.484Z,130.16
2023-04-22T05:00:51.476Z,126.89
2023-04-22T05:01:51.491Z,130.90
2023-04-22T05:02:51.542Z,128.76
2023-04-22T05:03:51.562Z,130.52
2023-04-22T05:04:51.518Z,128.37
2023-04-22T05:05:51.438Z,126.81
2023-04-22T05:06:51.427Z,127.97
2023-04-22T05:07:51.438Z,126.00
2023-04-22T05:08:51.429Z,126.90
2023-04-22T05:09:51.414Z,127.16
2023-04-22T05:10:51.430Z,130.13
2023-04-22T05:11:51.416Z,127.71
2023-04-22T05:12:51.420Z,128.06
2023-04-22T05:13:51.388Z,127.31
2023-04-22T05:14:51.388Z,127.63
2023-04-22T05:15:51.388Z,126.98
2023-04-22T05:16:51.446Z,128.99
2023-04-22T05:17:51.459Z,127.67
2023-04-22T05:18:51.376Z,126.69
2023-04-22T05:19:51.351Z,126.82
2023-04-22T05:20:51.368Z,128.12
2023-04-22T05:21:51.331Z,128.36
2023-04-22T05:22:51.329Z,126.28
2023-04-22T05:23:51.352Z,124.77
2023-04-22T05:24:51.405Z,125.64
2023-04-22T05:25:52.834Z,125.98
2023-04-22T05:26:51.305Z,127.72
2023-04-22T05:27:51.292Z,126.77
2023-04-22T05:28:51.278Z,127.13
2023-04-22T05:29:51.279Z,125.44
2023-04-22T05:30:51.346Z,126.77
2023-04-22T05:31:51.373Z,127.55
2023-04-22T05:32:51.468Z,126.02
2023-04-22T05:33:51.422Z,126.27
2023-04-22T05:34:51.429Z,124.95
2023-04-22T05:35:51.487Z,128.25
2023-04-22T05:36:51.524Z,126.12
2023-04-22T05:37:51.585Z,128.21
2023-04-22T05:38:51.639Z,127.07
2023-04-22T05:39:51.762Z,127.42
2023-04-22T05:40:51.767Z,127.63
2023-04-22T05:41:51.804Z,125.79
2023-04-22T05:42:51.873Z,124.10
2023-04-22T05:43:51.946Z,129.15
2023-04-22T05:44:51.977Z,127.06
2023-04-22T05:45:52.036Z,126.49
2023-04-22T05:46:52.092Z,126.24
2023-04-22T05:47:52.226Z,125.43
2023-04-22T05:48:52.216Z,126.00
2023-04-22T05:49:52.257Z,128.16
2023-04-22T05:50:52.329Z,125.55
2023-04-22T05:51:52.364Z,127.51
2023-04-22T05:52:52.434Z,127.94
2023-04-22T05:53:52.470Z,128.96
2023-04-22T05:54:52.546Z,127.44
2023-04-22T05:55:52.609Z,129.05
2023-04-22T05:56:52.649Z,126.19
2023-04-22T05:57:52.708Z,128.30
2023-04-22T05:58:52.763Z,124.97
2023-04-22T05:59:52.817Z,128.32
2023-04-22T06:00:52.887Z,127.22
2023-04-22T06:01:52.926Z,125.77
2023-04-22T06:02:53.101Z,124.81
2023-04-22T06:03:53.193Z,125.91
2023-04-22T06:04:53.437Z,129.10
2023-04-22T06:05:53.339Z,126.85
2023-04-22T06:06:53.229Z,124.64
2023-04-22T06:07:53.280Z,129.46
2023-04-22T06:08:53.346Z,124.84
2023-04-22T06:10:02.187Z,125.58
2023-04-22T06:10:54.404Z,125.78
2023-04-22T06:11:53.388Z,125.99
2023-04-22T06:12:53.387Z,126.31
2023-04-22T06:13:53.390Z,128.55
2023-04-22T06:14:53.354Z,128.58
2023-04-22T06:15:53.451Z,127.44
2023-04-22T06:16:53.405Z,126.66
2023-04-22T06:17:53.413Z,128.54
2023-04-22T06:18:53.355Z,126.97
2023-04-22T06:19:53.329Z,125.70
2023-04-22T06:20:53.351Z,126.45
2023-04-22T06:21:53.404Z,125.20
2023-04-22T06:22:53.410Z,127.47
2023-04-22T06:23:53.471Z,124.82
2023-04-22T06:24:53.507Z,125.30
2023-04-22T06:25:53.586Z,128.79
2023-04-22T06:26:53.621Z,126.80
2023-04-22T06:27:53.678Z,125.73
2023-04-22T06:28:53.750Z,125.39
2023-04-22T06:29:53.784Z,126.06
2023-04-22T06:30:53.922Z,125.31
2023-04-22T06:31:53.926Z,127.02
2023-04-22T06:32:53.997Z,124.34
2023-04-22T06:33:54.028Z,124.10
2023-04-22T06:34:54.060Z,125.62
2023-04-22T06:35:54.539Z,129.21
2023-04-22T06:36:54.209Z,128.47
2023-04-22T06:37:54.244Z,124.97
2023-04-22T06:38:54.305Z,125.92
2023-04-22T06:39:54.354Z,127.68
2023-04-22T06:40:54.426Z,123.21
2023-04-22T06:41:54.479Z,125.11
2023-04-22T06:42:54.562Z,124.58
2023-04-22T06:43:54.616Z,125.69
2023-04-22T06:44:54.670Z,127.66
2023-04-22T06:45:54.728Z,125.08
2023-04-22T06:46:56.495Z,127.45
2023-04-22T06:47:54.822Z,129.76
2023-04-22T06:48:54.780Z,128.23
2023-04-22T06:49:54.767Z,123.96
2023-04-22T06:50:54.772Z,123.49
2023-04-22T06:51:54.753Z,123.93
2023-04-22T06:52:54.748Z,126.47
2023-04-22T06:53:54.730Z,122.96
2023-04-22T06:54:54.766Z,123.87
2023-04-22T06:55:54.772Z,125.32
2023-04-22T06:56:54.733Z,123.99
2023-04-22T06:57:54.752Z,123.61
2023-04-22T06:58:54.729Z,124.43
2023-04-22T06:59:54.716Z,123.82
2023-04-22T07:00:54.710Z,123.44
2023-04-22T07:01:54.734Z,124.44
2023-04-22T07:02:54.737Z,122.42
2023-04-22T07:03:54.700Z,122.27
2023-04-22T07:04:54.671Z,121.07
2023-04-22T07:05:55.023Z,123.63
2023-04-22T07:06:54.655Z,122.90
2023-04-22T07:07:54.635Z,124.78
2023-04-22T07:08:54.631Z,121.86
2023-04-22T07:09:54.675Z,125.86
2023-04-22T07:10:55.055Z,124.03
2023-04-22T07:11:54.687Z,124.10
2023-04-22T07:12:54.620Z,123.28
2023-04-22T07:13:54.602Z,123.27
2023-04-22T07:14:54.604Z,121.90
2023-04-22T07:15:54.647Z,121.85
2023-04-22T07:16:54.617Z,121.81
2023-04-22T07:17:54.636Z,122.98
2023-04-22T07:18:54.560Z,121.34
2023-04-22T07:19:54.549Z,122.21
2023-04-22T07:20:54.584Z,123.10
2023-04-22T07:21:54.587Z,122.40
2023-04-22T07:22:54.653Z,123.24
2023-04-22T07:23:54.687Z,120.84
2023-04-22T07:24:54.763Z,122.50
2023-04-22T07:25:54.854Z,124.27
2023-04-22T07:26:54.900Z,120.36
2023-04-22T07:27:54.945Z,121.14
2023-04-22T07:28:55.044Z,120.46
2023-04-22T07:29:55.089Z,122.40
2023-04-22T07:30:55.157Z,118.17
2023-04-22T07:31:55.252Z,120.72
2023-04-22T07:32:55.288Z,122.11
2023-04-22T07:33:55.331Z,120.78
2023-04-22T07:34:55.373Z,122.62
2023-04-22T07:35:55.457Z,120.85
2023-04-22T07:36:55.492Z,121.58
2023-04-22T07:37:55.557Z,122.89
2023-04-22T07:38:55.646Z,123.93
2023-04-22T07:39:55.635Z,118.91
2023-04-22T07:40:56.038Z,120.31
2023-04-22T07:41:55.784Z,123.31
2023-04-22T07:42:55.830Z,121.54
2023-04-22T07:43:55.896Z,122.48
2023-04-22T07:44:55.969Z,124.28
2023-04-22T07:45:56.088Z,122.88
2023-04-22T07:46:56.055Z,123.72
2023-04-22T07:47:56.163Z,121.30
2023-04-22T07:48:56.273Z,122.30
2023-04-22T07:49:56.259Z,122.03
2023-04-22T07:50:56.341Z,121.16
2023-04-22T07:51:56.373Z,120.75
2023-04-22T07:52:56.432Z,123.53
2023-04-22T07:53:56.529Z,123.52
2023-04-22T07:54:56.559Z,124.93
2023-04-22T07:55:56.651Z,123.80
2023-04-22T07:56:56.754Z,122.50
2023-04-22T07:57:56.777Z,123.18
2023-04-22T07:58:56.840Z,124.33
2023-04-22T07:59:56.890Z,125.07
2023-04-22T08:00:57.006Z,121.28
2023-04-22T08:01:57.049Z,125.54
2023-04-22T08:02:57.300Z,124.30
2023-04-22T08:03:57.373Z,123.09
2023-04-22T08:04:57.247Z,123.42
2023-04-22T08:05:57.383Z,124.84
2023-04-22T08:06:57.323Z,123.10
2023-04-22T08:07:57.387Z,123.76
2023-04-22T08:08:57.443Z,124.28
2023-04-22T08:09:57.510Z,123.27
2023-04-22T08:10:57.586Z,124.62
2023-04-22T08:11:57.627Z,123.27
2023-04-22T08:12:57.721Z,125.80
2023-04-22T08:13:57.752Z,125.03
2023-04-22T08:14:57.814Z,125.11
2023-04-22T08:15:58.677Z,125.92
2023-04-22T08:16:57.948Z,124.10
2023-04-22T08:17:58.075Z,124.42
2023-04-22T08:18:58.084Z,124.97
2023-04-22T08:19:58.150Z,124.91
2023-04-22T08:20:58.588Z,124.34
2023-04-22T08:21:58.259Z,123.99
2023-04-22T08:22:58.313Z,124.61
2023-04-22T08:23:58.396Z,125.02
2023-04-22T08:24:58.397Z,126.84
2023-04-22T08:25:58.470Z,124.85
2023-04-22T08:26:58.536Z,124.92
2023-04-22T08:27:58.586Z,125.21
2023-04-22T08:28:58.630Z,124.47
2023-04-22T08:29:58.686Z,125.87
2023-04-22T08:30:58.827Z,126.65
2023-04-22T08:31:58.781Z,124.99
2023-04-22T08:32:58.867Z,124.23
2023-04-22T08:33:58.888Z,125.74
2023-04-22T08:35:04.318Z,126.56
2023-04-22T08:35:59.951Z,126.72
2023-04-22T08:36:58.927Z,126.81
2023-04-22T08:37:58.973Z,126.85
2023-04-22T08:38:58.913Z,125.99
2023-04-22T08:39:58.944Z,127.47
2023-04-22T08:40:58.902Z,127.60
2023-04-22T08:41:58.894Z,126.10
2023-04-22T08:42:58.942Z,127.49
2023-04-22T08:43:58.886Z,123.98
2023-04-22T08:44:58.953Z,127.76
2023-04-22T08:45:58.970Z,127.33
2023-04-22T08:46:59.971Z,122.02
2023-04-22T08:47:59.104Z,125.83
2023-04-22T08:48:59.148Z,129.02
2023-04-22T08:49:59.179Z,129.41
2023-04-22T08:50:59.270Z,126.98
2023-04-22T08:51:59.288Z,126.62
2023-04-22T08:52:59.345Z,129.26
2023-04-22T08:53:59.396Z,124.07
2023-04-22T08:54:59.467Z,123.05
2023-04-22T08:55:59.591Z,128.74
2023-04-22T08:56:59.656Z,130.34
2023-04-22T08:57:59.634Z,131.16
2023-04-22T08:58:59.697Z,128.90
2023-04-22T08:59:59.746Z,124.79
2023-04-22T09:00:59.836Z,130.20
2023-04-22T09:01:59.922Z,128.30
2023-04-22T09:02:59.963Z,124.55
2023-04-22T09:04:00.099Z,122.72
2023-04-22T09:05:00.030Z,123.99
2023-04-22T09:06:00.128Z,123.45
2023-04-22T09:07:00.107Z,128.99
2023-04-22T09:08:00.166Z,130.26
2023-04-22T09:09:00.189Z,125.97
2023-04-22T09:10:00.250Z,126.20
2023-04-22T09:11:00.325Z,126.91
2023-04-22T09:12:00.345Z,125.33
2023-04-22T09:13:00.374Z,127.19
2023-04-22T09:14:00.435Z,117.13
2023-04-22T09:15:00.478Z,125.72
2023-04-22T09:16:02.182Z,125.98
2023-04-22T09:17:00.639Z,122.12
2023-04-22T09:18:00.612Z,124.54
2023-04-22T09:19:00.683Z,122.09
2023-04-22T09:20:00.699Z,127.28
2023-04-22T09:21:00.752Z,127.82
2023-04-22T09:22:00.774Z,121.27
2023-04-22T09:23:00.809Z,123.02
2023-04-22T09:24:00.842Z,117.85
2023-04-22T09:25:00.889Z,131.39
2023-04-22T09:26:00.941Z,121.61
2023-04-22T09:27:01.041Z,123.46
2023-04-22T09:28:00.983Z,128.51
2023-04-22T09:29:01.013Z,119.21
2023-04-22T09:30:01.077Z,128.08
2023-04-22T09:31:01.114Z,125.01
2023-04-22T09:32:01.183Z,117.71
2023-04-22T09:33:01.201Z,118.74
2023-04-22T09:34:01.236Z,125.29
2023-04-22T09:35:01.214Z,125.74
2023-04-22T09:36:01.261Z,122.70
2023-04-22T09:37:01.267Z,120.13
2023-04-22T09:38:01.295Z,124.08
2023-04-22T09:39:01.313Z,126.31
2023-04-22T09:40:01.349Z,128.15
2023-04-22T09:41:01.349Z,125.70
2023-04-22T09:42:01.362Z,123.71
2023-04-22T09:43:01.400Z,121.58
2023-04-22T09:44:01.463Z,122.09
2023-04-22T09:45:02.259Z,120.89
2023-04-22T09:46:01.487Z,129.65
2023-04-22T09:47:01.559Z,125.79
2023-04-22T09:48:01.544Z,122.87
2023-04-22T09:49:01.516Z,126.33
2023-04-22T09:50:01.648Z,126.23
2023-04-22T09:51:01.636Z,125.60
2023-04-22T09:52:01.557Z,121.18
2023-04-22T09:53:01.574Z,124.11
2023-04-22T09:54:01.627Z,129.63
2023-04-22T09:55:01.613Z,131.57
2023-04-22T09:56:01.640Z,118.22
2023-04-22T09:57:01.646Z,124.99
2023-04-22T09:58:01.669Z,119.16
2023-04-22T09:59:01.669Z,128.46
2023-04-22T10:00:01.654Z,121.10
2023-04-22T10:01:01.777Z,119.77
2023-04-22T10:02:01.687Z,122.82
2023-04-22T10:03:01.822Z,121.08
2023-04-22T10:04:01.778Z,119.67
2023-04-22T10:05:01.691Z,123.29
2023-04-22T10:06:01.721Z,122.00
2023-04-22T10:07:01.724Z,121.68
2023-04-22T10:08:01.787Z,120.90
2023-04-22T10:09:01.768Z,127.16
2023-04-22T10:10:01.741Z,125.12
2023-04-22T10:11:01.751Z,118.99
2023-04-22T10:12:01.774Z,121.51
2023-04-22T10:13:01.770Z,125.00
2023-04-22T10:14:01.757Z,120.77
2023-04-22T10:15:01.776Z,118.68
2023-04-22T10:16:01.790Z,118.80
2023-04-22T10:17:01.800Z,124.16
2023-04-22T10:18:01.796Z,119.32
2023-04-22T10:19:01.809Z,119.16
2023-04-22T10:20:01.770Z,118.69
2023-04-22T10:21:01.894Z,119.71
2023-04-22T10:22:01.745Z,123.77
2023-04-22T10:23:01.753Z,122.65
2023-04-22T10:24:01.747Z,126.27
2023-04-22T10:25:01.743Z,121.57
2023-04-22T10:26:01.771Z,120.77
2023-04-22T10:27:01.744Z,122.31
2023-04-22T10:28:01.748Z,119.71
2023-04-22T10:29:01.726Z,119.90
2023-04-22T10:30:01.733Z,120.14
2023-04-22T10:31:01.714Z,121.63
2023-04-22T10:32:01.714Z,118.36
2023-04-22T10:33:01.771Z,120.66
2023-04-22T10:34:01.725Z,122.18
2023-04-22T10:35:01.737Z,119.09
2023-04-22T10:36:01.741Z,120.84
2023-04-22T10:37:01.761Z,120.87
2023-04-22T10:38:01.772Z,121.20
2023-04-22T10:39:01.796Z,118.58
2023-04-22T10:40:01.817Z,122.64
2023-04-22T10:41:01.851Z,121.12
2023-04-22T10:42:01.907Z,121.58
2023-04-22T10:43:01.928Z,122.65
2023-04-22T10:44:01.958Z,120.47
2023-04-22T10:45:01.957Z,122.69
2023-04-22T10:46:02.064Z,121.05
2023-04-22T10:47:02.076Z,120.08
2023-04-22T10:48:02.128Z,120.85
2023-04-22T10:49:02.100Z,121.63
2023-04-22T10:50:02.170Z,120.94
2023-04-22T10:51:02.178Z,119.51
2023-04-22T10:52:02.249Z,120.90
2023-04-22T10:53:02.268Z,121.06
2023-04-22T10:54:02.436Z,125.29
2023-04-22T10:55:02.358Z,119.70
2023-04-22T10:56:02.433Z,121.10
2023-04-22T10:57:02.494Z,122.40
2023-04-22T10:58:02.574Z,122.83
2023-04-22T10:59:02.615Z,122.15
2023-04-22T11:00:02.664Z,120.31
2023-04-22T11:01:02.722Z,121.73
2023-04-22T11:02:02.849Z,120.66
2023-04-22T11:03:02.951Z,123.01
2023-04-22T11:04:03.025Z,124.89
2023-04-22T11:05:02.970Z,122.80
2023-04-22T11:06:03.045Z,122.21
2023-04-22T11:07:03.095Z,124.22
2023-04-22T11:08:03.176Z,122.78
2023-04-22T11:09:03.232Z,125.03
2023-04-22T11:10:03.298Z,122.42
2023-04-22T11:11:03.423Z,119.24
2023-04-22T11:12:03.450Z,120.65
2023-04-22T11:13:03.520Z,123.90
2023-04-22T11:14:03.581Z,121.83
2023-04-22T11:15:03.607Z,122.77
2023-04-22T11:16:04.653Z,124.62
2023-04-22T11:17:03.740Z,121.25
2023-04-22T11:18:03.822Z,122.06
2023-04-22T11:19:03.915Z,123.22
2023-04-22T11:20:03.941Z,123.42
2023-04-22T11:21:04.015Z,119.74
2023-04-22T11:22:04.091Z,121.23
2023-04-22T11:23:04.151Z,120.54
2023-04-22T11:24:04.178Z,123.05
2023-04-22T11:25:04.259Z,122.85
2023-04-22T11:26:04.373Z,122.22
2023-04-22T11:27:04.359Z,124.38
2023-04-22T11:28:04.429Z,122.84
2023-04-22T11:29:04.503Z,123.75
2023-04-22T11:30:04.638Z,125.04
2023-04-22T11:31:04.669Z,122.31
2023-04-22T11:32:04.778Z,120.33
2023-04-22T11:33:04.861Z,119.25
2023-04-22T11:34:04.812Z,124.33
2023-04-22T11:35:04.843Z,119.98
2023-04-22T11:36:04.987Z,122.73
2023-04-22T11:37:04.957Z,123.86
2023-04-22T11:38:05.029Z,123.25
2023-04-22T11:39:05.086Z,123.48
2023-04-22T11:41:05.166Z,123.95
2023-04-22T11:42:05.154Z,125.22
2023-04-22T11:43:05.135Z,124.25
2023-04-22T11:44:05.123Z,124.12
2023-04-22T11:45:05.131Z,122.75
2023-04-22T11:46:05.254Z,119.09
2023-04-22T11:47:05.109Z,121.09
2023-04-22T11:48:05.093Z,124.11
2023-04-22T11:49:05.102Z,120.86
2023-04-22T11:50:05.084Z,122.78
2023-04-22T11:51:05.084Z,124.20
2023-04-22T11:52:05.081Z,119.34
2023-04-22T11:53:05.081Z,124.67
2023-04-22T11:54:05.046Z,121.06
2023-04-22T11:55:05.055Z,119.30
2023-04-22T11:56:05.047Z,124.01
2023-04-22T11:57:05.083Z,121.89
2023-04-22T11:58:05.024Z,121.12
2023-04-22T11:59:05.034Z,120.19
2023-04-22T12:00:04.993Z,125.24
2023-04-22T12:01:05.008Z,121.31
2023-04-22T12:02:05.040Z,122.39
2023-04-22T12:03:05.117Z,120.48
2023-04-22T12:04:05.113Z,122.67
2023-04-22T12:05:05.022Z,123.22
2023-04-22T12:06:05.024Z,124.82
2023-04-22T12:07:04.973Z,122.44
2023-04-22T12:08:04.942Z,122.67
2023-04-22T12:09:04.960Z,124.99
2023-04-22T12:10:04.985Z,120.58
2023-04-22T12:11:05.016Z,123.85
2023-04-22T12:12:05.007Z,123.15
2023-04-22T12:13:04.919Z,123.09
2023-04-22T12:14:04.940Z,123.54
2023-04-22T12:15:04.918Z,122.91
2023-04-22T12:16:05.658Z,123.11
2023-04-22T12:17:04.967Z,121.39
2023-04-22T12:18:04.942Z,121.29
2023-04-22T12:19:04.945Z,123.34
2023-04-22T12:20:05.011Z,123.78
2023-04-22T12:21:05.149Z,121.86
2023-04-22T12:22:05.144Z,121.04
2023-04-22T12:23:05.225Z,122.47
2023-04-22T12:24:05.292Z,123.21
2023-04-22T12:25:05.310Z,118.93
2023-04-22T12:26:05.423Z,120.15
2023-04-22T12:27:05.497Z,118.20
2023-04-22T12:28:05.512Z,123.43
2023-04-22T12:29:05.590Z,125.71
2023-04-22T12:30:05.656Z,123.51